Time,TemperatureF,DewpointF,PressureIn,WindDirection,WindDirectionDegrees,WindSpeedMPH,WindSpeedGustMPH,Humidity,HourlyPrecipIn,Conditions,Clouds,dailyrainin,SolarRadiationWatts/m^2,SoftwareType,DateUTC
2013-07-12 00:01:00,71.0,57.0,-100.00,North,349,7.0,12.0,62,0.00,,,0.00,0.000000,,2013-07-12 04:01:00,
2013-07-12 00:10:00,70.0,59.0,-100.00,North,358,5.0,9.0,67,0.00,,,0.00,0.000000,,2013-07-12 04:10:00,
2013-07-12 00:43:00,70.0,59.0,-100.00,North,358,5.0,9.0,67,0.00,,,0.00,0.000000,,2013-07-12 04:43:00,
2013-07-12 00:53:00,70.0,59.0,-100.00,North,358,5.0,9.0,67,0.00,,,0.00,0.000000,,2013-07-12 04:53:00,
2013-07-12 01:02:00,70.0,59.0,-100.00,North,358,5.0,9.0,67,0.00,,,0.00,0.000000,,2013-07-12 05:02:00,
2013-07-12 01:10:00,68.0,58.0,-100.00,North,358,4.0,9.0,70,0.00,,,0.00,0.000000,,2013-07-12 05:10:00,
2013-07-12 01:43:00,68.0,58.0,-100.00,North,358,4.0,9.0,70,0.00,,,0.00,0.000000,,2013-07-12 05:43:00,
2013-07-12 01:53:00,68.0,58.0,-100.00,North,358,4.0,9.0,70,0.00,,,0.00,0.000000,,2013-07-12 05:53:00,
2013-07-12 02:01:00,68.0,58.0,-100.00,North,358,4.0,9.0,70,0.00,,,0.00,0.000000,,2013-07-12 06:01:00,
2013-07-12 02:10:00,67.0,57.0,-100.00,NNE,16,5.0,9.0,71,0.00,,,0.00,0.000000,,2013-07-12 06:10:00,
2013-07-12 02:42:00,67.0,57.0,-100.00,NNE,16,5.0,9.0,71,0.00,,,0.00,0.000000,,2013-07-12 06:42:00,
2013-07-12 02:52:00,67.0,57.0,-100.00,NNE,16,5.0,9.0,71,0.00,,,0.00,0.000000,,2013-07-12 06:52:00,
2013-07-12 03:02:00,67.0,57.0,-100.00,NNE,16,5.0,9.0,71,0.00,,,0.00,0.000000,,2013-07-12 07:02:00,
2013-07-12 03:10:00,68.0,59.0,-100.00,NNE,25,7.0,10.0,73,0.00,,,0.00,0.000000,,2013-07-12 07:10:00,
2013-07-12 03:43:00,68.0,59.0,-100.00,NNE,25,7.0,10.0,73,0.00,,,0.00,0.000000,,2013-07-12 07:43:00,
2013-07-12 03:52:00,68.0,59.0,-100.00,NNE,25,7.0,10.0,73,0.00,,,0.00,0.000000,,2013-07-12 07:52:00,
2013-07-12 04:02:00,68.0,59.0,-100.00,NNE,25,7.0,10.0,73,0.00,,,0.00,0.000000,,2013-07-12 08:02:00,
2013-07-12 04:10:00,68.0,59.0,-100.00,North,10,5.0,9.0,74,0.00,,,0.00,0.000000,,2013-07-12 08:10:00,
2013-07-12 04:42:00,68.0,59.0,-100.00,North,10,5.0,9.0,74,0.00,,,0.00,0.000000,,2013-07-12 08:42:00,
2013-07-12 04:53:00,68.0,59.0,-100.00,North,10,5.0,9.0,74,0.00,,,0.00,0.000000,,2013-07-12 08:53:00,
2013-07-12 05:02:00,68.0,59.0,-100.00,North,10,5.0,9.0,74,0.00,,,0.00,0.000000,,2013-07-12 09:02:00,
2013-07-12 05:10:00,66.0,58.0,-100.00,NNE,14,5.0,11.0,76,0.00,,,0.00,0.000000,,2013-07-12 09:10:00,
2013-07-12 05:32:00,66.0,58.0,-100.00,NNE,14,5.0,11.0,76,0.00,,,0.00,0.000000,,2013-07-12 09:32:00,
2013-07-12 05:43:00,66.0,58.0,-100.00,NNE,14,5.0,11.0,76,0.00,,,0.00,0.000000,,2013-07-12 09:43:00,
2013-07-12 05:52:00,66.0,58.0,-100.00,NNE,14,5.0,11.0,76,0.00,,,0.00,0.000000,,2013-07-12 09:52:00,
2013-07-12 06:01:00,66.0,58.0,-100.00,NNE,14,5.0,11.0,76,0.00,,,0.00,0.000000,,2013-07-12 10:01:00,
2013-07-12 06:10:00,66.0,59.0,-100.00,NNE,20,6.0,9.0,79,0.00,,,0.00,11.000000,,2013-07-12 10:10:00,
2013-07-12 06:43:00,66.0,59.0,-100.00,NNE,20,6.0,9.0,79,0.00,,,0.00,11.000000,,2013-07-12 10:43:00,
2013-07-12 06:52:00,66.0,59.0,-100.00,NNE,20,6.0,9.0,79,0.00,,,0.00,11.000000,,2013-07-12 10:52:00,
2013-07-12 07:02:00,66.0,59.0,-100.00,NNE,20,6.0,9.0,79,0.00,,,0.00,11.000000,,2013-07-12 11:02:00,
2013-07-12 07:10:00,67.0,61.0,-100.00,NNE,18,6.0,9.0,81,0.00,,,0.00,70.000000,,2013-07-12 11:10:00,
2013-07-12 07:43:00,67.0,61.0,-100.00,NNE,18,6.0,9.0,81,0.00,,,0.00,70.000000,,2013-07-12 11:43:00,
2013-07-12 07:53:00,67.0,61.0,-100.00,NNE,18,6.0,9.0,81,0.00,,,0.00,70.000000,,2013-07-12 11:53:00,
2013-07-12 08:02:00,67.0,61.0,-100.00,NNE,18,6.0,9.0,81,0.00,,,0.00,70.000000,,2013-07-12 12:02:00,
2013-07-12 08:10:00,68.0,61.0,-100.00,NNE,29,6.0,11.0,79,0.00,,,0.00,158.000000,,2013-07-12 12:10:00,
2013-07-12 08:43:00,68.0,61.0,-100.00,NNE,29,6.0,11.0,79,0.00,,,0.00,158.000000,,2013-07-12 12:43:00,
2013-07-12 08:53:00,68.0,61.0,-100.00,NNE,29,6.0,11.0,79,0.00,,,0.00,158.000000,,2013-07-12 12:53:00,
2013-07-12 09:01:00,68.0,61.0,-100.00,NNE,29,6.0,11.0,79,0.00,,,0.00,158.000000,,2013-07-12 13:01:00,
2013-07-12 09:10:00,71.0,63.0,-100.00,NE,53,7.0,14.0,77,0.00,,,0.00,250.000000,,2013-07-12 13:10:00,
2013-07-12 09:43:00,71.0,63.0,-100.00,NE,53,7.0,14.0,77,0.00,,,0.00,250.000000,,2013-07-12 13:43:00,
2013-07-12 09:53:00,71.0,63.0,-100.00,NE,53,7.0,14.0,77,0.00,,,0.00,250.000000,,2013-07-12 13:53:00,
2013-07-12 10:02:00,71.0,63.0,-100.00,NE,53,7.0,14.0,77,0.00,,,0.00,250.000000,,2013-07-12 14:02:00,
2013-07-12 10:10:00,73.0,65.0,-100.00,ENE,58,6.0,14.0,77,0.00,,,0.00,406.000000,,2013-07-12 14:10:00,
2013-07-12 10:44:00,73.0,65.0,-100.00,ENE,58,6.0,14.0,77,0.00,,,0.00,406.000000,,2013-07-12 14:44:00,
2013-07-12 10:53:00,73.0,65.0,-100.00,ENE,58,6.0,14.0,77,0.00,,,0.00,406.000000,,2013-07-12 14:53:00,
2013-07-12 11:02:00,73.0,65.0,-100.00,ENE,58,6.0,14.0,77,0.00,,,0.00,406.000000,,2013-07-12 15:02:00,
2013-07-12 11:10:00,72.0,64.0,-100.00,NE,54,8.0,14.0,77,0.00,,,0.00,385.000000,,2013-07-12 15:10:00,
2013-07-12 11:43:00,72.0,64.0,-100.00,NE,54,8.0,14.0,77,0.00,,,0.00,385.000000,,2013-07-12 15:43:00,
2013-07-12 11:53:00,72.0,64.0,-100.00,NE,54,8.0,14.0,77,0.00,,,0.00,385.000000,,2013-07-12 15:53:00,
2013-07-12 12:02:00,72.0,64.0,-100.00,NE,54,8.0,14.0,77,0.00,,,0.00,385.000000,,2013-07-12 16:02:00,
2013-07-12 12:10:00,74.0,66.0,-100.00,NE,52,8.0,15.0,77,0.00,,,0.00,461.000000,,2013-07-12 16:10:00,
2013-07-12 12:43:00,74.0,66.0,-100.00,NE,52,8.0,15.0,77,0.00,,,0.00,461.000000,,2013-07-12 16:43:00,
2013-07-12 12:59:00,74.0,66.0,-100.00,NE,52,8.0,15.0,77,0.00,,,0.00,461.000000,,2013-07-12 16:59:00,
2013-07-12 13:07:00,74.0,66.0,-100.00,NE,52,8.0,15.0,77,0.00,,,0.00,461.000000,,2013-07-12 17:07:00,
2013-07-12 13:40:00,74.0,66.0,-100.00,ENE,67,7.0,13.0,76,0.00,,,0.00,483.000000,,2013-07-12 17:40:00,
2013-07-12 13:47:00,74.0,66.0,-100.00,ENE,67,7.0,13.0,76,0.00,,,0.00,483.000000,,2013-07-12 17:47:00,
2013-07-12 13:57:00,74.0,66.0,-100.00,ENE,67,7.0,13.0,76,0.00,,,0.00,483.000000,,2013-07-12 17:57:00,
2013-07-12 14:07:00,74.0,66.0,-100.00,ENE,67,7.0,13.0,76,0.00,,,0.00,483.000000,,2013-07-12 18:07:00,
2013-07-12 14:10:00,74.0,66.0,-100.00,ENE,58,7.0,12.0,76,0.00,,,0.00,353.000000,,2013-07-12 18:10:00,
2013-07-12 14:52:00,74.0,66.0,-100.00,ENE,58,7.0,12.0,76,0.00,,,0.00,353.000000,,2013-07-12 18:52:00,
2013-07-12 14:58:00,74.0,66.0,-100.00,ENE,58,7.0,12.0,76,0.00,,,0.00,353.000000,,2013-07-12 18:58:00,
2013-07-12 15:05:00,74.0,66.0,-100.00,ENE,58,7.0,12.0,76,0.00,,,0.00,353.000000,,2013-07-12 19:05:00,
2013-07-12 15:10:00,74.0,66.0,-100.00,NE,43,7.0,12.0,77,0.00,,,0.00,329.000000,,2013-07-12 19:10:00,
2013-07-12 15:48:00,74.0,66.0,-100.00,NE,43,7.0,12.0,77,0.00,,,0.00,329.000000,,2013-07-12 19:48:00,
2013-07-12 15:59:00,74.0,66.0,-100.00,NE,43,7.0,12.0,77,0.00,,,0.00,329.000000,,2013-07-12 19:59:00,
2013-07-12 16:47:00,72.0,65.0,-100.00,NE,50,7.0,14.0,79,0.00,,,0.00,229.000000,,2013-07-12 20:47:00,
2013-07-12 17:04:00,72.0,65.0,-100.00,NE,50,7.0,14.0,79,0.00,,,0.00,229.000000,,2013-07-12 21:04:00,
2013-07-12 17:10:00,70.0,67.0,-100.00,NE,52,5.0,11.0,91,0.03,,,0.03,123.000000,,2013-07-12 21:10:00,
2013-07-12 17:49:00,70.0,67.0,-100.00,NE,52,5.0,11.0,91,0.03,,,0.03,123.000000,,2013-07-12 21:49:00,
2013-07-12 17:59:00,70.0,67.0,-100.00,NE,52,5.0,11.0,91,0.03,,,0.03,123.000000,,2013-07-12 21:59:00,
2013-07-12 18:04:00,70.0,67.0,-100.00,NE,52,5.0,11.0,91,0.03,,,0.03,123.000000,,2013-07-12 22:04:00,
2013-07-12 18:10:00,69.0,67.0,-100.00,NE,40,8.0,12.0,94,0.02,,,0.05,82.000000,,2013-07-12 22:10:00,
2013-07-12 18:47:00,69.0,67.0,-100.00,NE,40,8.0,12.0,94,0.02,,,0.05,82.000000,,2013-07-12 22:47:00,
2013-07-12 18:56:00,69.0,67.0,-100.00,NE,40,8.0,12.0,94,0.02,,,0.05,82.000000,,2013-07-12 22:56:00,
2013-07-12 19:06:00,69.0,67.0,-100.00,NE,40,8.0,12.0,94,0.02,,,0.05,82.000000,,2013-07-12 23:06:00,
2013-07-12 19:45:00,69.0,68.0,-100.00,NE,55,6.0,15.0,95,0.02,,,0.07,63.000000,,2013-07-12 23:45:00,
2013-07-12 19:58:00,69.0,68.0,-100.00,NE,55,6.0,15.0,95,0.02,,,0.07,63.000000,,2013-07-12 23:58:00,
2013-07-12 20:08:00,69.0,68.0,-100.00,NE,55,6.0,15.0,95,0.02,,,0.07,63.000000,,2013-07-13 00:08:00,
2013-07-12 21:10:00,68.0,67.0,-100.00,ENE,72,7.0,16.0,97,-99.99,,,0.08,1.000000,,2013-07-13 01:10:00,
2013-07-12 21:50:00,68.0,67.0,-100.00,ENE,72,7.0,16.0,97,-99.99,,,0.08,1.000000,,2013-07-13 01:50:00,
2013-07-12 21:58:00,68.0,67.0,-100.00,ENE,72,7.0,16.0,97,-99.99,,,0.08,1.000000,,2013-07-13 01:58:00,
2013-07-12 22:08:00,68.0,67.0,-100.00,ENE,72,7.0,16.0,97,-99.99,,,0.08,1.000000,,2013-07-13 02:08:00,
2013-07-12 22:10:00,68.0,67.0,-100.00,ENE,75,10.0,19.0,98,0.00,,,0.08,0.000000,,2013-07-13 02:10:00,
2013-07-12 22:48:00,68.0,67.0,-100.00,ENE,75,10.0,19.0,98,0.00,,,0.08,0.000000,,2013-07-13 02:48:00,
2013-07-12 23:06:00,68.0,67.0,-100.00,ENE,75,10.0,19.0,98,0.00,,,0.08,0.000000,,2013-07-13 03:06:00,
2013-07-12 23:10:00,67.0,66.0,-100.00,ENE,69,9.0,17.0,98,0.02,,,0.10,0.000000,,2013-07-13 03:10:00,
2013-07-12 23:47:00,67.0,66.0,-100.00,ENE,69,9.0,17.0,98,0.02,,,0.10,0.000000,,2013-07-13 03:47:00,
2013-07-12 23:58:00,67.0,66.0,-100.00,ENE,69,9.0,17.0,98,0.02,,,0.10,0.000000,,2013-07-13 03:58:00,